createdAt,value
2018-09-13T00:00:51.110Z,17.80
2018-09-13T00:03:18.377Z,18.07
2018-09-13T00:05:45.681Z,16.87
2018-09-13T00:08:12.925Z,16.90
2018-09-13T00:10:40.253Z,16.45
2018-09-13T00:13:07.474Z,17.00
2018-09-13T00:15:34.754Z,16.07
2018-09-13T00:18:01.981Z,17.95
2018-09-13T00:20:29.261Z,17.90
2018-09-13T00:22:56.511Z,17.67
2018-09-13T00:25:23.772Z,17.32
2018-09-13T00:27:51.048Z,17.32
2018-09-13T00:30:18.307Z,17.92
2018-09-13T00:32:45.576Z,18.42
2018-09-13T00:35:12.873Z,16.95
2018-09-13T00:37:40.143Z,17.80
2018-09-13T00:40:07.487Z,17.37
2018-09-13T00:42:34.764Z,16.60
2018-09-13T00:45:02.007Z,16.60
2018-09-13T00:47:29.285Z,17.48
2018-09-13T00:49:56.515Z,16.27
2018-09-13T00:52:23.776Z,16.15
2018-09-13T00:54:51.025Z,16.70
2018-09-13T00:57:18.288Z,16.75
2018-09-13T00:59:45.529Z,15.63
2018-09-13T01:02:12.836Z,16.45
2018-09-13T01:04:40.135Z,15.78
2018-09-13T01:07:07.390Z,15.68
2018-09-13T01:09:34.621Z,15.88
2018-09-13T01:12:01.906Z,15.03
2018-09-13T01:14:29.158Z,16.00
2018-09-13T01:16:56.405Z,15.38
2018-09-13T01:19:23.701Z,17.35
2018-09-13T01:21:50.952Z,16.20
2018-09-13T01:24:18.192Z,16.67
2018-09-13T01:26:45.460Z,16.90
2018-09-13T01:29:12.689Z,16.20
2018-09-13T01:31:40.040Z,16.80
2018-09-13T01:34:07.283Z,16.62
2018-09-13T01:36:34.592Z,17.10
2018-09-13T01:39:01.878Z,16.15
2018-09-13T01:41:29.137Z,15.58
2018-09-13T01:43:56.425Z,17.05
2018-09-13T01:46:23.689Z,14.85
2018-09-13T01:48:50.909Z,15.30
2018-09-13T01:51:18.170Z,15.32
2018-09-13T01:53:45.405Z,16.00
2018-09-13T01:56:12.661Z,16.60
2018-09-13T01:58:39.949Z,16.40
2018-09-13T02:01:07.242Z,16.23
2018-09-13T02:03:34.498Z,16.02
2018-09-13T02:06:01.779Z,16.30
2018-09-13T02:08:29.017Z,16.62
2018-09-13T02:10:56.272Z,16.75
2018-09-13T02:13:23.582Z,15.95
2018-09-13T02:15:50.888Z,15.90
2018-09-13T02:18:18.137Z,16.95
2018-09-13T02:20:45.401Z,15.55
2018-09-13T02:23:12.656Z,16.00
2018-09-13T02:25:39.908Z,16.55
2018-09-13T02:28:07.165Z,15.35
2018-09-13T02:30:34.426Z,16.05
2018-09-13T02:33:01.730Z,16.12
2018-09-13T02:35:29.000Z,16.10
2018-09-13T02:37:56.240Z,14.95
2018-09-13T02:40:23.501Z,16.65
2018-09-13T02:42:50.796Z,15.88
2018-09-13T02:45:18.128Z,15.45
2018-09-13T02:47:45.385Z,15.13
2018-09-13T02:50:12.649Z,15.03
2018-09-13T02:52:39.918Z,15.58
2018-09-13T02:55:07.187Z,15.45
2018-09-13T02:57:34.483Z,15.28
2018-09-13T03:00:01.726Z,14.60
2018-09-13T03:02:28.982Z,16.52
2018-09-13T03:04:56.257Z,15.48
2018-09-13T03:07:23.529Z,15.53
2018-09-13T03:09:50.761Z,15.43
2018-09-13T03:12:18.035Z,15.88
2018-09-13T03:14:45.261Z,16.30
2018-09-13T03:17:12.559Z,16.27
2018-09-13T03:19:39.809Z,15.68
2018-09-13T03:22:07.043Z,14.95
2018-09-13T03:24:34.300Z,15.65
2018-09-13T03:27:01.579Z,15.72
2018-09-13T03:29:28.874Z,16.45
2018-09-13T03:31:56.145Z,15.25
2018-09-13T03:34:23.393Z,15.58
2018-09-13T03:36:50.608Z,16.35
2018-09-13T03:39:17.882Z,15.00
2018-09-13T03:41:45.122Z,16.23
2018-09-13T03:44:12.362Z,16.65
2018-09-13T03:46:39.626Z,16.12
2018-09-13T03:49:06.865Z,16.23
2018-09-13T03:51:34.162Z,17.12
2018-09-13T03:54:01.405Z,17.37
2018-09-13T03:56:28.813Z,16.75
2018-09-13T03:58:56.125Z,17.50
2018-09-13T04:01:23.354Z,18.25
2018-09-13T04:03:50.657Z,17.80
2018-09-13T04:06:17.981Z,19.48
2018-09-13T04:08:45.253Z,19.85
2018-09-13T04:11:12.494Z,18.75
2018-09-13T04:13:39.801Z,20.23
2018-09-13T04:16:07.094Z,20.43
2018-09-13T04:18:34.597Z,20.55
2018-09-13T04:21:01.807Z,22.27
2018-09-13T04:23:29.057Z,21.20
2018-09-13T04:25:56.320Z,20.50
2018-09-13T04:28:23.610Z,21.40
2018-09-13T04:30:50.936Z,20.52
2018-09-13T04:33:18.173Z,19.92
2018-09-13T04:35:45.533Z,20.97
2018-09-13T04:38:12.685Z,21.82
2018-09-13T04:40:39.929Z,21.35
2018-09-13T04:43:07.182Z,20.35
2018-09-13T04:45:34.453Z,22.32
2018-09-13T04:48:01.744Z,22.07
2018-09-13T04:50:28.965Z,19.85
2018-09-13T04:52:56.290Z,21.05
2018-09-13T04:55:23.557Z,22.70
2018-09-13T04:57:50.841Z,21.45
2018-09-13T05:00:18.179Z,23.50
2018-09-13T05:02:45.367Z,22.02
2018-09-13T05:05:12.626Z,21.23
2018-09-13T05:07:39.960Z,21.95
2018-09-13T05:10:07.485Z,23.02
2018-09-13T05:12:34.757Z,21.77
2018-09-13T05:15:02.029Z,20.60
2018-09-13T05:17:29.449Z,21.55
2018-09-13T05:19:56.697Z,21.85
2018-09-13T05:22:23.944Z,22.05
2018-09-13T05:24:51.217Z,21.45
2018-09-13T05:27:18.449Z,23.02
2018-09-13T05:29:45.768Z,21.48
2018-09-13T05:32:13.013Z,21.15
2018-09-13T05:34:40.312Z,21.48
2018-09-13T05:37:07.567Z,22.75
2018-09-13T05:39:34.809Z,19.98
2018-09-13T05:42:02.064Z,19.02
2018-09-13T05:44:30.021Z,20.50
2018-09-13T05:46:57.190Z,20.57
2018-09-13T05:49:24.442Z,19.90
2018-09-13T05:51:52.227Z,21.33
2018-09-13T05:54:19.464Z,18.65
2018-09-13T05:56:46.736Z,18.82
2018-09-13T05:59:14.001Z,19.25
2018-09-13T06:01:41.265Z,19.12
2018-09-13T06:04:08.529Z,19.32
2018-09-13T06:06:35.804Z,19.52
2018-09-13T06:09:03.368Z,19.17
2018-09-13T06:11:30.636Z,19.60
2018-09-13T06:13:57.922Z,20.80
2018-09-13T06:16:25.241Z,19.42
2018-09-13T06:18:52.489Z,18.73
2018-09-13T06:21:19.870Z,17.98
2018-09-13T06:23:47.161Z,19.27
2018-09-13T06:26:14.386Z,19.70
2018-09-13T06:28:41.653Z,19.17
2018-09-13T06:31:08.916Z,18.60
2018-09-13T06:33:36.195Z,19.75
2018-09-13T06:36:03.460Z,18.48
2018-09-13T06:38:30.725Z,18.57
2018-09-13T06:40:58.041Z,19.80
2018-09-13T06:43:25.921Z,19.62
2018-09-13T06:45:53.166Z,18.05
2018-09-13T06:48:20.436Z,18.40
2018-09-13T06:50:47.685Z,18.00
2018-09-13T06:53:14.926Z,18.52
2018-09-13T06:55:42.240Z,19.42
2018-09-13T06:58:09.520Z,18.20
2018-09-13T07:00:36.782Z,18.95
2018-09-13T07:03:04.122Z,19.05
2018-09-13T07:05:31.401Z,18.50
2018-09-13T07:07:58.643Z,18.20
2018-09-13T07:10:25.930Z,18.92
2018-09-13T07:12:53.219Z,19.27
2018-09-13T07:15:20.512Z,17.57
2018-09-13T07:17:47.865Z,18.52
2018-09-13T07:20:15.217Z,19.35
2018-09-13T07:22:42.468Z,19.20
2018-09-13T07:25:09.746Z,19.40
2018-09-13T07:27:36.980Z,17.60
2018-09-13T07:30:04.618Z,18.77
2018-09-13T07:32:31.934Z,16.87
2018-09-13T07:34:59.153Z,16.87
2018-09-13T07:37:26.662Z,16.75
2018-09-13T07:39:53.948Z,16.97
2018-09-13T07:42:21.269Z,15.53
2018-09-13T07:44:48.538Z,17.12
2018-09-13T07:47:15.757Z,15.03
2018-09-13T07:49:43.236Z,15.70
2018-09-13T07:52:10.428Z,16.50
2018-09-13T07:54:38.010Z,15.55
2018-09-13T07:57:05.291Z,15.55
2018-09-13T07:59:32.545Z,15.85
2018-09-13T08:01:59.817Z,14.78
2018-09-13T08:04:27.163Z,14.60
2018-09-13T08:06:54.494Z,16.48
2018-09-13T08:09:21.791Z,16.60
2018-09-13T08:11:49.110Z,14.45
2018-09-13T08:14:16.427Z,14.73
2018-09-13T08:16:43.752Z,15.32
2018-09-13T08:19:11.021Z,15.83
2018-09-13T08:21:38.322Z,15.08
2018-09-13T08:24:06.106Z,14.30
2018-09-13T08:26:33.447Z,13.58
2018-09-13T08:29:00.762Z,15.40
2018-09-13T08:31:28.090Z,14.85
2018-09-13T08:33:55.405Z,14.60
2018-09-13T08:36:22.713Z,14.10
2018-09-13T08:38:49.992Z,14.25
2018-09-13T08:41:17.345Z,13.15
2018-09-13T08:43:44.615Z,14.73
2018-09-13T08:46:12.016Z,14.38
2018-09-13T08:48:39.277Z,13.60
2018-09-13T08:51:06.533Z,13.20
2018-09-13T08:53:33.834Z,13.55
2018-09-13T08:56:01.135Z,14.47
2018-09-13T08:58:28.430Z,14.20
2018-09-13T09:00:55.790Z,15.15
2018-09-13T09:03:23.086Z,15.75
2018-09-13T09:05:50.334Z,14.53
2018-09-13T09:08:17.606Z,15.85
2018-09-13T09:10:44.992Z,15.08
2018-09-13T09:13:12.328Z,15.45
2018-09-13T09:15:39.629Z,14.60
2018-09-13T09:18:06.966Z,15.93
2018-09-13T09:20:34.234Z,14.85
2018-09-13T09:23:01.533Z,14.83
2018-09-13T09:25:28.794Z,14.90
2018-09-13T09:27:56.109Z,14.10
2018-09-13T09:30:23.360Z,16.25
2018-09-13T09:32:50.672Z,15.83
2018-09-13T09:35:17.997Z,14.93
2018-09-13T09:37:45.311Z,14.40
2018-09-13T09:40:12.598Z,16.27
2018-09-13T09:42:39.885Z,14.98
2018-09-13T09:45:07.200Z,14.18
2018-09-13T09:47:34.466Z,15.03
2018-09-13T09:50:01.838Z,16.10
2018-09-13T09:52:29.122Z,15.83
2018-09-13T09:54:57.835Z,15.93
2018-09-13T09:57:25.100Z,15.10
2018-09-13T09:59:52.390Z,15.80
2018-09-13T10:02:21.836Z,16.40
2018-09-13T10:04:49.391Z,15.45
2018-09-13T10:07:16.718Z,15.88
2018-09-13T10:09:44.033Z,17.57
2018-09-13T10:14:39.134Z,16.82
2018-09-13T10:17:13.099Z,16.85
2018-09-13T10:19:46.610Z,17.00
2018-09-13T10:22:20.380Z,17.10
2018-09-13T10:25:57.887Z,16.20
2018-09-13T10:28:31.692Z,15.65
2018-09-13T10:31:05.526Z,17.73
2018-09-13T10:34:38.071Z,17.30
2018-09-13T10:37:11.946Z,16.97
2018-09-13T10:39:45.745Z,15.60
2018-09-13T10:42:19.394Z,16.42
2018-09-13T10:44:52.957Z,17.73
2018-09-13T10:47:26.766Z,17.02
2018-09-13T10:50:00.540Z,17.02
2018-09-13T10:52:33.229Z,16.35
2018-09-13T10:55:01.554Z,15.80
2018-09-13T10:57:48.526Z,15.55
2018-09-13T11:00:16.976Z,16.80
2018-09-13T11:02:45.408Z,16.57
2018-09-13T11:05:14.018Z,16.60
2018-09-13T11:07:42.610Z,15.50
2018-09-13T11:10:11.110Z,17.27
2018-09-13T11:12:43.774Z,14.80
2018-09-13T11:15:20.882Z,15.18
2018-09-13T11:17:49.472Z,15.15
2018-09-13T11:20:17.997Z,15.60
2018-09-13T11:22:50.589Z,14.90
2018-09-13T11:25:19.880Z,14.65
2018-09-13T11:27:48.300Z,15.35
2018-09-13T11:30:16.869Z,16.15
2018-09-13T11:32:45.358Z,15.00
2018-09-13T11:35:13.852Z,15.25
2018-09-13T11:37:42.373Z,15.38
2018-09-13T11:40:11.757Z,15.93
2018-09-13T11:42:40.245Z,14.65
2018-09-13T11:45:09.232Z,16.42
2018-09-13T11:47:37.683Z,15.63
2018-09-13T11:50:07.006Z,15.75
2018-09-13T11:52:35.647Z,15.43
2018-09-13T11:55:04.158Z,14.95
2018-09-13T11:57:32.666Z,14.78
2018-09-13T12:00:01.286Z,14.90
2018-09-13T12:02:30.788Z,14.45
2018-09-13T12:04:59.830Z,17.27
2018-09-13T12:07:28.832Z,15.80
2018-09-13T12:09:57.259Z,15.20
2018-09-13T12:12:25.794Z,14.90
2018-09-13T12:14:54.355Z,15.00
2018-09-13T12:17:22.887Z,15.98
2018-09-13T12:19:51.310Z,15.35
2018-09-13T12:22:20.506Z,15.53
2018-09-13T12:24:48.934Z,15.58
2018-09-13T12:27:17.446Z,14.55
2018-09-13T12:29:45.838Z,15.45
2018-09-13T12:32:14.355Z,15.90
2018-09-13T12:34:43.874Z,16.05
2018-09-13T12:37:12.458Z,14.70
2018-09-13T12:39:40.848Z,15.25
2018-09-13T12:42:09.430Z,15.40
2018-09-13T12:44:37.961Z,14.93
2018-09-13T12:47:06.502Z,15.38
2018-09-13T12:49:35.034Z,16.02
2018-09-13T12:52:04.138Z,15.30
2018-09-13T12:54:32.522Z,14.83
2018-09-13T12:57:01.112Z,15.05
2018-09-13T12:59:29.604Z,14.65
2018-09-13T13:01:58.013Z,14.70
2018-09-13T13:04:26.545Z,15.00
2018-09-13T13:06:55.051Z,15.68
2018-09-13T13:09:23.519Z,15.48
2018-09-13T13:11:52.080Z,15.40
2018-09-13T13:14:20.511Z,14.78
2018-09-13T13:16:49.128Z,15.53
2018-09-13T13:19:17.538Z,14.80
2018-09-13T13:21:46.462Z,14.70
2018-09-13T13:24:15.601Z,15.68
2018-09-13T13:26:44.167Z,14.40
2018-09-13T13:29:12.641Z,14.58
2018-09-13T13:31:41.094Z,14.40
2018-09-13T13:34:09.625Z,15.55
2018-09-13T13:36:38.177Z,14.33
2018-09-13T13:39:08.925Z,15.18
2018-09-13T13:41:37.434Z,14.30
2018-09-13T13:44:06.254Z,15.60
2018-09-13T13:46:34.607Z,14.65
2018-09-13T13:49:03.007Z,14.45
2018-09-13T13:51:31.582Z,14.53
2018-09-13T13:53:59.935Z,15.43
2018-09-13T13:56:27.363Z,14.65
2018-09-13T13:58:54.843Z,14.10
2018-09-13T14:01:22.321Z,14.28
2018-09-13T14:03:49.778Z,15.40
2018-09-13T14:06:17.177Z,15.08
2018-09-13T14:08:44.519Z,15.53
2018-09-13T14:11:11.913Z,15.15
2018-09-13T14:13:39.432Z,14.35
2018-09-13T14:16:06.862Z,15.72
2018-09-13T14:18:34.226Z,14.70
2018-09-13T14:21:01.635Z,14.95
2018-09-13T14:23:29.152Z,15.10
2018-09-13T14:25:56.585Z,15.30
2018-09-13T14:28:23.969Z,15.43
2018-09-13T14:30:52.456Z,15.20
2018-09-13T14:33:19.898Z,15.18
2018-09-13T14:35:47.311Z,15.10
2018-09-13T14:38:14.710Z,14.90
2018-09-13T14:40:42.106Z,14.85
2018-09-13T14:43:09.576Z,13.70
2018-09-13T14:45:37.016Z,14.30
2018-09-13T14:48:04.762Z,15.40
2018-09-13T14:50:32.201Z,15.35
2018-09-13T14:52:59.528Z,15.23
2018-09-13T14:55:27.023Z,15.65
2018-09-13T14:57:54.996Z,14.25
2018-09-13T15:00:22.425Z,14.28
2018-09-13T15:02:49.810Z,14.75
2018-09-13T15:05:17.223Z,15.93
2018-09-13T15:07:44.642Z,14.55
2018-09-13T15:10:12.247Z,15.93
2018-09-13T15:12:40.292Z,14.58
2018-09-13T15:15:07.675Z,14.10
2018-09-13T15:17:35.155Z,15.20
2018-09-13T15:20:02.562Z,15.72
2018-09-13T15:22:29.886Z,14.70
2018-09-13T15:24:57.441Z,14.58
2018-09-13T15:27:24.936Z,14.98
2018-09-13T15:29:52.402Z,14.33
2018-09-13T15:32:19.777Z,14.10
2018-09-13T15:34:47.172Z,16.60
2018-09-13T15:37:14.607Z,15.58
2018-09-13T15:39:42.029Z,14.78
2018-09-13T15:42:09.614Z,15.55
2018-09-13T15:44:37.113Z,15.55
2018-09-13T15:47:04.805Z,14.80
2018-09-13T15:49:32.255Z,16.25
2018-09-13T15:52:00.255Z,15.35
2018-09-13T15:54:27.705Z,16.12
2018-09-13T15:56:55.087Z,15.18
2018-09-13T15:59:22.621Z,15.18
2018-09-13T16:01:50.079Z,15.38
2018-09-13T16:04:17.721Z,15.65
2018-09-13T16:06:45.164Z,16.10
2018-09-13T16:09:12.588Z,15.03
2018-09-13T16:11:40.138Z,15.70
2018-09-13T16:14:07.603Z,15.10
2018-09-13T16:16:35.303Z,15.70
2018-09-13T16:19:03.029Z,14.90
2018-09-13T16:21:30.604Z,14.98
2018-09-13T16:23:58.374Z,15.60
2018-09-13T16:26:25.825Z,14.87
2018-09-13T16:28:53.233Z,15.28
2018-09-13T16:31:20.829Z,15.93
2018-09-13T16:33:48.186Z,15.25
2018-09-13T16:36:18.805Z,14.80
2018-09-13T16:38:51.727Z,15.40
2018-09-13T16:41:24.523Z,16.23
2018-09-13T16:43:57.457Z,15.85
2018-09-13T16:46:30.404Z,15.43
2018-09-13T16:48:57.928Z,15.05
2018-09-13T16:51:25.412Z,14.60
2018-09-13T16:53:52.816Z,15.20
2018-09-13T16:56:20.371Z,14.78
2018-09-13T16:58:47.784Z,15.03
2018-09-13T17:01:15.292Z,15.45
2018-09-13T17:03:42.908Z,15.30
2018-09-13T17:06:10.311Z,15.28
2018-09-13T17:08:37.831Z,15.53
2018-09-13T17:11:05.439Z,14.70
2018-09-13T17:13:32.888Z,16.48
2018-09-13T17:16:00.312Z,15.28
2018-09-13T17:18:27.833Z,14.47
2018-09-13T17:20:56.245Z,15.60
2018-09-13T17:23:23.669Z,14.93
2018-09-13T17:25:51.260Z,15.10
2018-09-13T17:28:18.674Z,16.00
2018-09-13T17:30:46.217Z,15.18
2018-09-13T17:33:13.792Z,15.45
2018-09-13T17:35:41.352Z,16.10
2018-09-13T17:38:08.876Z,17.65
2018-09-13T17:40:36.331Z,14.75
2018-09-13T17:43:03.944Z,14.43
2018-09-13T17:45:31.474Z,18.87
2018-09-13T17:47:58.987Z,18.92
2018-09-13T17:50:26.480Z,15.95
2018-09-13T17:52:53.936Z,15.35
2018-09-13T17:55:21.562Z,15.88
2018-09-13T17:57:49.132Z,14.98
2018-09-13T18:00:16.768Z,15.88
2018-09-13T18:02:44.253Z,14.40
2018-09-13T18:05:11.707Z,15.43
2018-09-13T18:07:39.335Z,15.80
2018-09-13T18:10:06.837Z,17.85
2018-09-13T18:12:34.387Z,17.17
2018-09-13T18:15:02.451Z,20.95
2018-09-13T18:17:31.187Z,18.32
2018-09-13T18:19:58.852Z,17.70
2018-09-13T18:22:26.404Z,16.70
2018-09-13T18:24:53.837Z,15.63
2018-09-13T18:27:21.405Z,16.45
2018-09-13T18:29:48.966Z,22.58
2018-09-13T18:32:16.554Z,20.00
2018-09-13T18:34:44.162Z,17.85
2018-09-13T18:37:11.587Z,16.20
2018-09-13T18:39:39.069Z,17.17
2018-09-13T18:42:06.712Z,17.55
2018-09-13T18:44:34.419Z,15.48
2018-09-13T18:47:01.972Z,14.87
2018-09-13T18:49:29.480Z,15.10
2018-09-13T18:51:58.697Z,15.55
2018-09-13T18:54:26.217Z,16.23
2018-09-13T18:56:53.707Z,17.17
2018-09-13T18:59:21.267Z,20.60
2018-09-13T19:01:48.799Z,16.32
2018-09-13T19:04:16.405Z,15.28
2018-09-13T19:06:43.877Z,27.73
2018-09-13T19:09:11.969Z,22.13
2018-09-13T19:11:39.806Z,28.38
2018-09-13T19:14:07.493Z,20.57
2018-09-13T19:16:34.972Z,16.80
2018-09-13T19:19:02.676Z,16.05
2018-09-13T19:21:30.154Z,16.27
2018-09-13T19:23:57.636Z,16.90
2018-09-13T19:26:25.091Z,18.20
2018-09-13T19:28:52.890Z,16.07
2018-09-13T19:31:20.403Z,16.17
2018-09-13T19:33:47.885Z,16.60
2018-09-13T19:36:15.324Z,15.70
2018-09-13T19:38:42.797Z,16.07
2018-09-13T19:41:10.521Z,17.35
2018-09-13T19:43:38.105Z,17.10
2018-09-13T19:46:05.537Z,18.87
2018-09-13T19:48:32.996Z,17.73
2018-09-13T19:51:00.586Z,15.50
2018-09-13T19:53:29.636Z,16.52
2018-09-13T19:55:57.068Z,16.40
2018-09-13T19:58:24.498Z,18.73
2018-09-13T20:00:51.976Z,18.60
2018-09-13T20:03:19.532Z,16.67
2018-09-13T20:05:46.993Z,16.62
2018-09-13T20:08:14.443Z,17.75
2018-09-13T20:10:41.899Z,17.90
2018-09-13T20:13:09.367Z,16.52
2018-09-13T20:15:36.812Z,19.67
2018-09-13T20:18:04.426Z,22.17
2018-09-13T20:20:31.878Z,21.33
2018-09-13T20:22:59.557Z,19.12
2018-09-13T20:25:26.974Z,17.52
2018-09-13T20:27:54.368Z,17.00
2018-09-13T20:30:21.883Z,17.12
2018-09-13T20:32:49.412Z,18.55
2018-09-13T20:35:16.999Z,17.75
2018-09-13T20:37:44.432Z,15.88
2018-09-13T20:40:11.886Z,16.10
2018-09-13T20:42:39.372Z,17.90
2018-09-13T20:45:06.827Z,16.00
2018-09-13T20:47:34.226Z,18.45
2018-09-13T20:50:01.706Z,16.30
2018-09-13T20:52:29.244Z,16.25
2018-09-13T20:54:56.675Z,16.97
2018-09-13T20:57:24.154Z,16.12
2018-09-13T20:59:51.821Z,15.90
2018-09-13T21:02:19.252Z,17.23
2018-09-13T21:04:46.706Z,15.90
2018-09-13T21:07:14.168Z,16.35
2018-09-13T21:09:41.561Z,17.02
2018-09-13T21:12:08.991Z,16.30
2018-09-13T21:14:36.477Z,16.73
2018-09-13T21:17:04.065Z,15.80
2018-09-13T21:19:31.484Z,14.78
2018-09-13T21:21:58.910Z,15.53
2018-09-13T21:24:26.353Z,16.20
2018-09-13T21:26:53.740Z,16.45
2018-09-13T21:29:21.219Z,16.30
2018-09-13T21:31:48.834Z,15.83
2018-09-13T21:34:16.296Z,16.20
2018-09-13T21:36:44.567Z,15.45
2018-09-13T21:39:12.121Z,16.62
2018-09-13T21:41:39.518Z,15.55
2018-09-13T21:44:06.991Z,16.20
2018-09-13T21:46:34.386Z,15.83
2018-09-13T21:49:01.817Z,15.20
2018-09-13T21:51:30.532Z,16.17
2018-09-13T21:53:58.040Z,15.40
2018-09-13T21:56:25.427Z,15.93
2018-09-13T21:58:53.070Z,17.73
2018-09-13T22:01:20.615Z,17.45
2018-09-13T22:03:48.037Z,16.75
2018-09-13T22:06:15.498Z,15.53
2018-09-13T22:08:42.990Z,16.90
2018-09-13T22:11:10.392Z,16.80
2018-09-13T22:13:37.990Z,16.87
2018-09-13T22:16:05.446Z,17.15
2018-09-13T22:18:33.052Z,16.17
2018-09-13T22:21:00.576Z,16.67
2018-09-13T22:23:27.936Z,17.45
2018-09-13T22:25:56.016Z,15.93
2018-09-13T22:28:23.527Z,17.05
2018-09-13T22:30:51.746Z,17.67
2018-09-13T22:33:19.128Z,17.65
2018-09-13T22:35:46.533Z,17.75
2018-09-13T22:38:14.065Z,17.35
2018-09-13T22:40:41.536Z,16.75
2018-09-13T22:43:08.879Z,17.67
2018-09-13T22:45:36.397Z,16.45
2018-09-13T22:48:03.914Z,16.55
2018-09-13T22:50:31.446Z,16.80
2018-09-13T22:52:58.933Z,17.40
2018-09-13T22:55:31.241Z,16.45
2018-09-13T22:57:58.749Z,18.12
2018-09-13T23:00:26.202Z,16.80
2018-09-13T23:02:53.591Z,18.40
2018-09-13T23:05:21.115Z,16.57
2018-09-13T23:07:48.517Z,17.87
2018-09-13T23:10:16.796Z,20.23
2018-09-13T23:12:44.196Z,17.52
2018-09-13T23:15:12.922Z,18.92
2018-09-13T23:17:40.311Z,19.12
2018-09-13T23:20:10.345Z,19.65
2018-09-13T23:22:37.689Z,17.62
2018-09-13T23:25:06.305Z,17.35
